Time;durP1;ratioP1;P1;durP2;ratioP2;P2;SDS_P1;SDS_P2;PMS_P1;PMS_P2;Temp;Humidity;BMP_temperature;BMP_pressure;BME280_temperature;BME280_humidity;BME280_pressure;Samples;Min_cycle;Max_cycle;Signal;HPM_P1;HPM_P2
2022/06/16 00:01:29;;;;;;;62.42;59.17;;;;;;;27.79;31.90;101753.84;5055412;28;20078;-69
2022/06/16 00:03:55;;;;;;;57.40;54.70;;;;;;;27.76;32.71;101753.72;5061873;28;20051;-71
2022/06/16 00:06:21;;;;;;;55.97;53.13;;;;;;;27.74;32.70;101765.16;5050589;28;20045;-70
2022/06/16 00:08:47;;;;;;;56.55;53.75;;;;;;;27.70;32.77;101755.88;5068296;28;20036;-72
2022/06/16 00:11:19;;;;;;;56.92;54.03;;;;;;;27.68;32.57;101757.38;5052844;28;20397;-70
2022/06/16 00:13:47;;;;;;;58.15;55.25;;;;;;;27.66;32.79;101759.66;5056163;28;20032;-71
2022/06/16 00:16:12;;;;;;;58.30;55.00;;;;;;;27.63;32.99;101763.91;5058872;28;20033;-70
2022/06/16 00:18:39;;;;;;;58.90;55.90;;;;;;;27.62;32.56;101763.09;5068847;28;20036;-70
2022/06/16 00:21:05;;;;;;;59.15;56.25;;;;;;;27.60;32.94;101768.19;5066044;28;20029;-70
2022/06/16 00:23:31;;;;;;;57.55;54.67;;;;;;;27.58;32.86;101773.25;5055457;28;20025;-69
2022/06/16 00:25:56;;;;;;;54.53;51.75;;;;;;;27.57;32.65;101773.59;5059487;28;20140;-69
2022/06/16 00:28:22;;;;;;;58.08;55.17;;;;;;;27.54;32.61;101769.53;5058145;28;20126;-70
2022/06/16 00:30:48;;;;;;;56.30;53.38;;;;;;;27.52;33.12;101782.09;5072981;28;20044;-70
2022/06/16 00:33:13;;;;;;;54.30;51.63;;;;;;;27.49;33.13;101769.69;5056009;28;20470;-70
2022/06/16 00:35:39;;;;;;;58.30;55.50;;;;;;;27.46;32.69;101770.34;5072525;28;20031;-69
2022/06/16 00:38:04;;;;;;;56.08;53.28;;;;;;;27.44;32.74;101782.94;5066529;28;20037;-70
2022/06/16 00:40:29;;;;;;;53.63;50.88;;;;;;;27.41;32.94;101773.31;5072600;28;20477;-69
2022/06/16 00:42:55;;;;;;;54.70;52.03;;;;;;;27.38;33.20;101782.31;5071252;28;20098;-69
2022/06/16 00:45:48;;;;;;;54.92;52.20;;;;;;;27.35;33.07;101785.75;5070800;28;20553;-70
2022/06/16 00:48:21;;;;;;;53.03;50.47;;;;;;;27.31;33.10;101771.72;5073524;28;20491;-70
2022/06/16 00:50:53;;;;;;;53.03;50.42;;;;;;;27.26;32.86;101777.44;5072671;28;20528;-69
2022/06/16 00:53:18;;;;;;;52.90;50.20;;;;;;;27.24;32.65;101771.44;5070614;28;20036;-69
2022/06/16 00:55:44;;;;;;;57.00;54.05;;;;;;;27.21;33.09;101776.81;5065647;28;20044;-69
2022/06/16 00:58:10;;;;;;;54.53;51.83;;;;;;;27.17;33.31;101779.41;5064681;28;20534;-70
2022/06/16 01:00:45;;;;;;;54.45;51.65;;;;;;;27.15;33.05;101782.50;5065910;28;20040;-69
2022/06/16 01:03:10;;;;;;;52.40;49.50;;;;;;;27.11;32.69;101789.84;5061058;28;20504;-69
2022/06/16 01:05:36;;;;;;;54.50;51.78;;;;;;;27.08;33.20;101786.94;5071625;28;20029;-69
2022/06/16 01:08:04;;;;;;;53.20;50.35;;;;;;;27.05;32.87;101796.72;5071336;28;20515;-69
2022/06/16 01:10:37;;;;;;;52.67;50.08;;;;;;;27.02;33.22;101796.59;5072745;28;20465;-69
2022/06/16 01:16:21;;;;;;;51.03;48.53;;;;;;;26.94;32.94;101787.13;5071224;28;20036;-69
2022/06/16 01:19:21;;;;;;;54.95;52.25;;;;;;;26.90;32.83;101792.50;5069293;28;20036;-69
2022/06/16 01:22:07;;;;;;;51.97;49.42;;;;;;;26.86;32.75;101799.03;5068419;28;20024;-69
2022/06/16 01:24:56;;;;;;;51.72;49.20;;;;;;;26.82;32.85;101803.63;5070706;28;20500;-69
2022/06/16 01:27:46;;;;;;;52.08;49.40;;;;;;;26.77;32.91;101810.94;5059864;28;20051;-69
2022/06/16 01:30:17;;;;;;;50.70;48.13;;;;;;;26.74;32.88;101796.94;5072147;28;20032;-69
2022/06/16 01:32:56;;;;;;;53.75;50.92;;;;;;;26.69;33.34;101797.91;5071351;28;20048;-69
2022/06/16 01:35:47;;;;;;;51.40;48.90;;;;;;;26.67;33.13;101796.63;5060503;28;20039;-69
2022/06/16 01:38:33;;;;;;;53.00;50.35;;;;;;;26.63;33.04;101809.47;5057079;28;20385;-69
2022/06/16 01:41:09;;;;;;;50.75;48.10;;;;;;;26.60;33.34;101815.69;5067420;28;20029;-69
2022/06/16 01:43:40;;;;;;;52.05;49.45;;;;;;;26.57;33.43;101816.34;5065711;28;20115;-69
2022/06/16 01:46:26;;;;;;;54.65;51.95;;;;;;;26.54;33.36;101815.03;5071538;28;20036;-69
2022/06/16 01:49:00;;;;;;;53.08;50.08;;;;;;;26.49;33.28;101812.41;5067944;28;20452;-69
2022/06/16 01:51:51;;;;;;;51.90;49.15;;;;;;;26.46;33.24;101808.31;5070489;28;20116;-70
2022/06/16 01:54:27;;;;;;;53.22;50.30;;;;;;;26.42;32.94;101806.53;5067573;28;20078;-69
2022/06/16 01:56:58;;;;;;;51.40;48.60;;;;;;;26.39;33.49;101804.41;5068079;28;20051;-69
2022/06/16 01:59:27;;;;;;;52.95;50.10;;;;;;;26.35;33.22;101801.44;5072048;28;20025;-69
2022/06/16 02:01:59;;;;;;;53.67;51.05;;;;;;;26.33;32.81;101795.41;5063175;28;20039;-69
2022/06/16 02:04:36;;;;;;;52.47;49.85;;;;;;;26.30;33.12;101790.53;5066287;28;20024;-69
2022/06/16 02:07:08;;;;;;;53.33;50.42;;;;;;;26.26;33.31;101800.66;5069498;28;20029;-69
2022/06/16 02:09:46;;;;;;;55.28;52.47;;;;;;;26.23;33.31;101796.56;5067159;28;20032;-69
2022/06/16 02:12:55;;;;;;;49.70;47.30;;;;;;;26.19;32.92;101803.06;5062508;28;20036;-69
2022/06/16 02:15:08;;;;;;;50.40;47.65;;;;;;;26.15;33.06;101813.16;5058052;28;20541;-69
2022/06/16 02:17:33;;;;;;;51.50;48.70;;;;;;;26.11;33.36;101811.03;5070160;28;20089;-70
2022/06/16 02:19:59;;;;;;;51.63;48.85;;;;;;;26.08;33.08;101808.91;5071347;28;20032;-69
2022/06/16 02:22:24;;;;;;;50.33;47.72;;;;;;;26.06;33.00;101818.69;5061662;28;20036;-69
2022/06/16 02:24:50;;;;;;;51.03;48.33;;;;;;;26.02;32.97;101826.00;5061743;28;20037;-69
2022/06/16 02:27:15;;;;;;;51.72;49.05;;;;;;;26.00;33.16;101834.59;5061012;28;20040;-69
2022/06/16 02:29:40;;;;;;;50.38;47.88;;;;;;;25.97;33.06;101843.56;5068526;28;20040;-69
2022/06/16 02:32:39;;;;;;;50.38;47.67;;;;;;;25.93;33.07;101853.66;5069915;28;20035;-69
2022/06/16 02:35:27;;;;;;;49.45;46.72;;;;;;;25.89;33.36;101855.44;5068650;28;20028;-71
2022/06/16 02:38:13;;;;;;;49.33;46.70;;;;;;;25.84;33.57;101855.53;5060174;28;20032;-69
2022/06/16 02:41:14;;;;;;;49.67;47.17;;;;;;;25.80;33.10;101860.88;5064716;28;20090;-69
2022/06/16 02:43:45;;;;;;;49.15;46.63;;;;;;;25.75;33.63;101858.25;5034414;28;20080;-69
2022/06/16 02:46:26;;;;;;;50.30;47.75;;;;;;;25.73;33.37;101851.41;5060233;28;20056;-70
2022/06/16 02:49:06;;;;;;;51.60;48.92;;;;;;;25.69;33.07;101843.75;5066731;28;20071;-70
2022/06/16 02:51:43;;;;;;;48.08;45.67;;;;;;;25.66;33.25;101854.66;5070407;28;20028;-71
2022/06/16 02:54:24;;;;;;;50.65;47.70;;;;;;;25.62;33.43;101850.88;5057732;28;20025;-70
2022/06/16 02:57:06;;;;;;;50.60;47.50;;;;;;;25.58;33.19;101861.78;5054073;28;20090;-69
2022/06/16 02:59:43;;;;;;;48.45;45.63;;;;;;;25.55;33.25;101858.81;5070196;28;20103;-71
2022/06/16 03:02:14;;;;;;;50.45;47.80;;;;;;;25.51;33.28;101866.94;5071450;28;20126;-70
2022/06/16 03:04:43;;;;;;;48.10;45.75;;;;;;;25.47;33.04;101865.94;5060622;28;20021;-70
2022/06/16 03:07:14;;;;;;;50.53;48.03;;;;;;;25.45;33.16;101862.66;5071071;28;20031;-71
2022/06/16 03:09:40;;;;;;;49.60;46.97;;;;;;;25.41;33.25;101851.44;5069443;28;20055;-70
2022/06/16 03:12:07;;;;;;;48.90;45.75;;;;;;;25.38;33.62;101854.03;5062880;28;20025;-70
2022/06/16 03:14:33;;;;;;;46.93;44.53;;;;;;;25.34;33.62;101848.28;5074048;28;20033;-70
2022/06/16 03:16:59;;;;;;;48.35;45.65;;;;;;;25.32;33.90;101847.78;5071081;28;20028;-69
2022/06/16 03:19:24;;;;;;;49.58;46.85;;;;;;;25.29;33.75;101842.06;5069314;28;20392;-71
2022/06/16 03:21:50;;;;;;;47.00;44.60;;;;;;;25.26;33.61;101858.16;5071567;28;20433;-69
2022/06/16 03:24:15;;;;;;;48.25;45.80;;;;;;;25.22;33.32;101851.66;5069820;28;20043;-69
2022/06/16 03:26:41;;;;;;;47.83;45.33;;;;;;;25.20;33.41;101862.19;5072405;28;20040;-70
2022/06/16 03:29:06;;;;;;;47.90;45.50;;;;;;;25.18;34.07;101861.69;5057354;28;20048;-69
2022/06/16 03:31:32;;;;;;;47.75;45.33;;;;;;;25.14;33.85;101880.00;5072383;28;20207;-69
2022/06/16 03:33:57;;;;;;;48.75;46.35;;;;;;;25.11;33.95;101869.56;5062700;28;20476;-70
2022/06/16 03:36:23;;;;;;;45.95;43.65;;;;;;;25.08;33.89;101880.47;5074307;28;20029;-69
2022/06/16 03:38:48;;;;;;;46.55;43.75;;;;;;;25.05;33.79;101877.19;5070944;28;20059;-69
2022/06/16 03:41:15;;;;;;;47.58;44.95;;;;;;;25.01;33.65;101881.69;5073717;28;20041;-69
2022/06/16 03:43:40;;;;;;;46.30;43.75;;;;;;;24.98;33.97;101882.31;5073933;28;20039;-70
2022/06/16 03:46:06;;;;;;;45.63;43.10;;;;;;;24.96;34.15;101886.53;5071232;28;20467;-69
2022/06/16 03:48:32;;;;;;;47.85;45.38;;;;;;;24.93;33.50;101893.50;5064558;28;20028;-70
2022/06/16 03:50:57;;;;;;;46.20;43.90;;;;;;;24.91;33.57;101903.25;5057517;28;20051;-69
2022/06/16 03:53:24;;;;;;;45.28;42.97;;;;;;;24.87;34.08;101902.22;5073264;28;20037;-71
2022/06/16 03:55:50;;;;;;;46.75;44.38;;;;;;;24.85;33.78;101916.38;5066288;28;20409;-69
2022/06/16 03:58:16;;;;;;;47.85;45.45;;;;;;;24.81;33.71;101912.56;5074064;28;20487;-69
2022/06/16 04:00:41;;;;;;;46.67;43.92;;;;;;;24.77;34.15;101906.88;5071914;28;20143;-69
2022/06/16 04:05:52;;;;;;;47.00;44.42;;;;;;;24.71;33.78;101913.63;5073486;28;20396;-69
2022/06/16 04:08:19;;;;;;;47.33;44.65;;;;;;;24.68;34.21;101908.72;5069153;28;20045;-69
2022/06/16 04:10:46;;;;;;;45.43;43.10;;;;;;;24.65;34.24;101905.78;5059346;28;20032;-69
2022/06/16 04:13:11;;;;;;;47.83;45.00;;;;;;;24.61;34.27;101914.66;5072777;28;20369;-69
2022/06/16 04:15:37;;;;;;;46.00;43.58;;;;;;;24.58;33.71;101915.28;5060006;28;20107;-70
2022/06/16 04:18:02;;;;;;;46.63;44.15;;;;;;;24.55;34.24;101915.09;5070624;28;20036;-70
2022/06/16 04:20:28;;;;;;;46.05;43.60;;;;;;;24.52;33.88;101916.53;5069240;28;20420;-70
2022/06/16 04:22:53;;;;;;;46.05;43.55;;;;;;;24.49;33.85;101922.66;5059304;28;20484;-69
2022/06/16 04:25:23;;;;;;;43.33;41.08;;;;;;;24.46;34.27;101914.97;5072346;28;20118;-70
2022/06/16 04:27:49;;;;;;;46.35;43.85;;;;;;;24.43;34.35;101923.88;5073252;28;20056;-69
2022/06/16 04:30:16;;;;;;;44.33;42.10;;;;;;;24.40;34.32;101924.47;5070677;28;20554;-70
2022/06/16 04:32:42;;;;;;;46.08;43.67;;;;;;;24.36;33.91;101924.25;5069080;28;20059;-70
2022/06/16 04:35:08;;;;;;;45.30;42.72;;;;;;;24.34;33.71;101931.22;5070060;28;20036;-70
2022/06/16 04:37:34;;;;;;;44.92;42.60;;;;;;;24.31;33.99;101943.69;5072672;28;20048;-70
2022/06/16 04:39:59;;;;;;;45.17;42.83;;;;;;;24.28;34.07;101947.06;5071582;28;20029;-70
2022/06/16 04:42:25;;;;;;;44.15;41.75;;;;;;;24.26;34.13;101945.75;5071428;28;20028;-70
2022/06/16 04:44:50;;;;;;;45.22;42.75;;;;;;;24.23;34.44;101944.41;5067876;28;20487;-69
2022/06/16 04:47:16;;;;;;;43.90;41.72;;;;;;;24.21;34.37;101954.13;5071246;28;20036;-70
2022/06/16 04:49:43;;;;;;;43.28;41.08;;;;;;;24.17;34.09;101948.41;5073333;28;20067;-70
2022/06/16 04:52:09;;;;;;;43.90;41.70;;;;;;;24.15;34.55;101950.66;5067077;28;20041;-70
2022/06/16 04:54:35;;;;;;;43.47;41.17;;;;;;;24.12;34.22;101954.03;5064243;28;20036;-70
2022/06/16 04:57:00;;;;;;;43.63;41.35;;;;;;;24.09;34.55;101957.38;5070265;28;20033;-69
2022/06/16 04:59:26;;;;;;;42.60;40.25;;;;;;;24.06;34.38;101956.06;5068730;28;20036;-70
2022/06/16 05:01:53;;;;;;;43.08;40.67;;;;;;;24.04;34.52;101966.59;5062061;28;20476;-70
2022/06/16 05:04:18;;;;;;;43.40;40.63;;;;;;;24.02;34.23;101968.84;5069593;28;20123;-71
2022/06/16 05:06:44;;;;;;;42.45;40.25;;;;;;;23.97;34.72;101969.75;5059915;28;20124;-71
2022/06/16 05:09:10;;;;;;;43.75;41.38;;;;;;;23.97;34.32;101968.94;5070247;28;20119;-68
2022/06/16 05:11:35;;;;;;;43.05;40.65;;;;;;;23.95;34.50;101973.94;5062308;28;20461;-70
2022/06/16 05:14:00;;;;;;;44.22;41.97;;;;;;;23.92;34.24;101978.13;5070467;28;20120;-71
2022/06/16 05:16:29;;;;;;;43.80;41.30;;;;;;;23.91;34.82;101978.41;5068924;28;20416;-71
2022/06/16 05:18:55;;;;;;;42.83;40.40;;;;;;;23.91;34.38;101992.22;5055639;28;20045;-69
2022/06/16 05:21:20;;;;;;;42.58;40.17;;;;;;;23.89;34.40;101989.78;5067674;28;20036;-69
2022/06/16 05:23:46;;;;;;;43.33;40.97;;;;;;;23.89;34.43;101983.41;5063288;28;20051;-70
2022/06/16 05:26:13;;;;;;;43.97;41.65;;;;;;;23.89;34.70;101994.44;5066461;28;20883;-69
2022/06/16 05:28:39;;;;;;;43.63;41.05;;;;;;;23.88;34.77;101995.59;5068310;28;20043;-70
2022/06/16 05:31:05;;;;;;;44.28;41.80;;;;;;;23.88;34.50;101993.63;5064605;28;20032;-70
2022/06/16 05:33:30;;;;;;;41.85;39.55;;;;;;;23.86;34.87;101998.63;5069046;28;20115;-70
2022/06/16 05:36:02;;;;;;;42.83;40.53;;;;;;;23.86;34.67;102003.34;5066005;28;20119;-69
2022/06/16 05:38:27;;;;;;;42.28;40.08;;;;;;;23.85;34.33;102001.72;5071752;28;20024;-70
2022/06/16 05:41:01;;;;;;;41.72;39.53;;;;;;;23.85;34.63;102002.53;5071794;28;20032;-70
2022/06/16 05:43:27;;;;;;;41.83;39.45;;;;;;;23.84;34.35;102006.41;5066849;28;20020;-70
2022/06/16 05:45:53;;;;;;;41.20;38.95;;;;;;;23.83;34.73;102006.72;5068296;28;20039;-70
2022/06/16 05:48:19;;;;;;;41.40;39.30;;;;;;;23.84;34.82;102011.09;5056362;28;20534;-70
2022/06/16 05:50:44;;;;;;;41.03;38.83;;;;;;;23.83;34.55;102015.78;5068701;28;20043;-70
2022/06/16 05:53:10;;;;;;;43.72;41.30;;;;;;;23.83;34.55;102018.56;5061494;28;20464;-70
2022/06/16 05:55:36;;;;;;;41.80;39.58;;;;;;;23.83;34.77;102026.84;5069796;28;20083;-70
2022/06/16 05:58:04;;;;;;;43.83;41.60;;;;;;;23.83;34.27;102026.84;5066871;28;20099;-68
2022/06/16 06:00:31;;;;;;;44.13;41.67;;;;;;;23.84;34.34;102031.25;5071696;28;20056;-70
2022/06/16 06:02:58;;;;;;;43.42;41.28;;;;;;;23.85;34.82;102030.13;5068850;28;20063;-70
2022/06/16 06:05:27;;;;;;;42.58;40.38;;;;;;;23.88;34.85;102028.69;5051379;28;20055;-70
2022/06/16 06:19:23;;;;;;;40.75;38.75;;;;;;;23.97;34.50;102037.94;5051929;28;20112;-70
2022/06/16 06:22:03;;;;;;;41.92;39.55;;;;;;;23.99;34.53;102043.97;5049028;28;20053;-71
2022/06/16 06:24:36;;;;;;;45.88;43.35;;;;;;;24.00;34.00;102040.09;5051293;28;20048;-70
2022/06/16 06:27:04;;;;;;;41.35;39.25;;;;;;;24.00;34.55;102044.78;5051006;28;20036;-70
2022/06/16 06:29:30;;;;;;;41.03;38.92;;;;;;;24.01;34.24;102038.13;5050153;28;20090;-70
2022/06/16 06:31:57;;;;;;;41.97;39.63;;;;;;;24.01;34.41;102038.94;5056859;28;20493;-70
2022/06/16 06:34:23;;;;;;;43.53;41.20;;;;;;;24.02;33.71;102039.78;5056063;28;20040;-70
2022/06/16 06:36:48;;;;;;;40.60;38.60;;;;;;;23.98;33.87;102021.06;5052081;28;20060;-71
2022/06/16 06:39:14;;;;;;;42.72;40.33;;;;;;;23.98;33.50;102028.53;5061854;28;20173;-69
2022/06/16 06:41:40;;;;;;;43.08;40.35;;;;;;;23.97;33.85;102035.97;5061681;28;20052;-69
2022/06/16 06:44:05;;;;;;;43.58;41.38;;;;;;;24.01;34.54;102040.91;5069613;28;20032;-70
2022/06/16 06:46:31;;;;;;;43.45;41.15;;;;;;;24.04;34.22;102043.03;5067500;28;20043;-70
2022/06/16 06:48:56;;;;;;;43.08;40.78;;;;;;;24.08;34.29;102039.38;5071365;28;20049;-70
2022/06/16 06:51:21;;;;;;;43.60;41.15;;;;;;;24.10;34.44;102037.16;5070301;28;20477;-70
2022/06/16 06:53:47;;;;;;;43.20;41.00;;;;;;;24.15;34.42;102042.56;5070806;28;20040;-70
2022/06/16 06:56:13;;;;;;;44.22;41.92;;;;;;;24.19;34.41;102067.63;5066057;28;20036;-70
2022/06/16 06:58:39;;;;;;;42.78;40.53;;;;;;;24.23;34.26;102071.41;5069699;28;20106;-70
2022/06/16 07:01:06;;;;;;;43.85;41.65;;;;;;;24.27;34.38;102074.41;5047083;28;20048;-70
2022/06/16 07:03:32;;;;;;;44.20;42.00;;;;;;;24.30;34.19;102073.81;5058230;28;20063;-70
2022/06/16 07:06:00;;;;;;;44.03;41.72;;;;;;;24.33;34.36;102079.53;5057781;28;20091;-70
2022/06/16 07:08:26;;;;;;;44.65;42.42;;;;;;;24.37;34.79;102086.09;5058334;28;20037;-70
2022/06/16 07:10:51;;;;;;;43.35;41.05;;;;;;;24.43;34.99;102088.75;5062187;28;20037;-71
2022/06/16 07:13:17;;;;;;;42.42;40.28;;;;;;;24.46;34.51;102086.22;5057412;28;20223;-71
2022/06/16 07:15:42;;;;;;;44.25;41.85;;;;;;;24.51;34.62;102090.84;5061263;28;20047;-72
2022/06/16 07:18:08;;;;;;;42.03;39.92;;;;;;;24.53;34.67;102092.16;5069148;28;20037;-71
2022/06/16 07:20:33;;;;;;;44.03;41.63;;;;;;;24.57;34.32;102095.16;5055180;28;20048;-71
2022/06/16 07:22:59;;;;;;;43.25;40.95;;;;;;;24.60;33.97;102100.88;5065051;28;20032;-71
2022/06/16 07:25:25;;;;;;;44.70;42.47;;;;;;;24.62;34.29;102103.34;5057876;28;20056;-70
2022/06/16 07:27:53;;;;;;;42.85;40.75;;;;;;;24.66;33.75;102106.31;5068115;28;20075;-70
2022/06/16 07:30:20;;;;;;;46.88;44.08;;;;;;;24.68;33.48;102104.06;5063751;28;20045;-71
2022/06/16 07:32:47;;;;;;;45.72;43.40;;;;;;;24.71;33.13;102111.75;5069541;28;20036;-71
2022/06/16 07:35:17;;;;;;;46.47;43.97;;;;;;;24.71;33.27;102104.25;5063578;28;20443;-71
2022/06/16 07:37:43;;;;;;;46.30;43.75;;;;;;;24.74;32.21;102106.41;5061303;28;21169;-71
2022/06/16 07:40:10;;;;;;;45.95;43.60;;;;;;;24.74;33.00;102119.41;5068595;28;20094;-70
2022/06/16 07:42:36;;;;;;;44.92;42.33;;;;;;;24.76;33.26;102120.75;5065502;28;20032;-70
2022/06/16 07:45:02;;;;;;;48.20;45.80;;;;;;;24.81;33.08;102128.13;5068137;28;20028;-71
2022/06/16 07:47:28;;;;;;;45.13;42.55;;;;;;;24.86;33.48;102122.50;5052309;28;20041;-71
2022/06/16 07:49:54;;;;;;;44.05;41.83;;;;;;;24.92;33.60;102128.75;5060883;28;20051;-70
2022/06/16 07:52:19;;;;;;;47.95;44.78;;;;;;;24.96;33.32;102138.06;5066250;28;20048;-71
2022/06/16 07:54:45;;;;;;;45.08;42.83;;;;;;;25.00;33.76;102123.34;5067495;28;20029;-71
2022/06/16 07:57:11;;;;;;;45.50;43.00;;;;;;;25.07;34.07;102142.25;5057084;28;20024;-70
2022/06/16 07:59:36;;;;;;;45.47;43.28;;;;;;;25.13;33.41;102146.56;5063545;28;20500;-70
2022/06/16 08:02:03;;;;;;;45.63;42.92;;;;;;;25.19;34.07;102144.53;5069556;28;20060;-70
2022/06/16 08:04:29;;;;;;;45.13;42.92;;;;;;;25.24;34.24;102145.25;5056905;28;20077;-73
2022/06/16 08:07:00;;;;;;;46.63;43.95;;;;;;;25.30;33.76;102145.97;5062514;28;20028;-70
2022/06/16 08:09:26;;;;;;;47.65;45.00;;;;;;;25.34;34.25;102149.75;5058209;28;20614;-69
2022/06/16 08:12:03;;;;;;;46.35;43.95;;;;;;;25.40;33.73;102145.75;5063641;28;20047;-70
2022/06/16 08:14:30;;;;;;;46.40;44.10;;;;;;;25.47;34.13;102148.91;5069151;28;20434;-69
2022/06/16 08:16:55;;;;;;;47.33;44.33;;;;;;;25.55;34.10;102144.63;5068522;28;20528;-69
2022/06/16 08:19:21;;;;;;;49.10;46.42;;;;;;;25.62;34.15;102150.53;5054348;28;20076;-70
2022/06/16 08:21:47;;;;;;;47.55;45.15;;;;;;;25.71;34.68;102135.97;5066866;28;20037;-71
2022/06/16 08:24:14;;;;;;;47.42;44.97;;;;;;;25.78;32.89;102136.34;5067875;28;20042;-70
2022/06/16 08:26:39;;;;;;;48.90;46.50;;;;;;;25.82;33.60;102140.94;5069187;28;20139;-70
2022/06/16 08:29:08;;;;;;;47.53;45.22;;;;;;;25.89;33.94;102140.53;5063889;28;20051;-70
2022/06/16 08:31:33;;;;;;;47.88;45.25;;;;;;;25.97;32.93;102138.97;5064147;28;20033;-70
2022/06/16 08:33:59;;;;;;;49.22;46.75;;;;;;;26.03;33.34;102146.00;5066171;28;20040;-70
2022/06/16 08:36:25;;;;;;;50.28;47.67;;;;;;;26.08;33.15;102143.97;5068838;28;20503;-69
2022/06/16 08:38:51;;;;;;;49.55;47.08;;;;;;;26.16;32.63;102147.09;5061088;28;20032;-70
2022/06/16 08:41:50;;;;;;;51.20;48.00;;;;;;;26.23;31.98;102151.09;5061950;28;20588;-70
2022/06/16 08:44:32;;;;;;;50.38;47.78;;;;;;;26.28;33.40;102147.34;5003715;28;20047;-70
2022/06/16 08:47:07;;;;;;;52.80;49.90;;;;;;;26.36;34.15;102154.91;5068088;28;20127;-71
2022/06/16 08:49:42;;;;;;;49.78;47.38;;;;;;;26.46;33.76;102151.03;5067126;28;20032;-70
2022/06/16 08:52:36;;;;;;;51.03;48.53;;;;;;;26.58;33.86;102159.63;5069062;28;20028;-70
2022/06/16 08:55:15;;;;;;;52.13;49.63;;;;;;;26.66;34.36;102158.88;5057692;28;20029;-70
2022/06/16 08:57:51;;;;;;;;;;;;;;;26.73;34.79;102158.41;5061531;28;20052;-70
2022/06/16 09:00:21;;;;;;;51.78;49.03;;;;;;;26.83;34.39;102165.63;5052192;28;19916;-69
2022/06/16 09:02:59;;;;;;;54.22;51.33;;;;;;;26.92;34.03;102156.22;5063346;28;20040;-70
2022/06/16 09:05:50;;;;;;;52.95;50.25;;;;;;;27.01;34.23;102164.56;5064717;28;20101;-73
2022/06/16 09:08:21;;;;;;;56.17;53.28;;;;;;;27.11;33.60;102164.25;5048930;28;20102;-77
2022/06/16 09:10:54;;;;;;;55.65;52.53;;;;;;;27.19;33.24;102169.06;5054111;28;20428;-70
2022/06/16 09:13:50;;;;;;;53.70;50.90;;;;;;;27.29;33.63;102165.19;5068557;28;20031;-71
2022/06/16 09:16:51;;;;;;;57.65;54.38;;;;;;;27.38;31.08;102160.47;5060484;28;20043;-71
2022/06/16 09:19:40;;;;;;;54.90;52.10;;;;;;;27.45;32.02;102156.41;5057796;28;20078;-70
2022/06/16 09:22:21;;;;;;;54.08;51.17;;;;;;;27.51;30.99;102157.88;5069673;28;20060;-72
2022/06/16 09:25:34;;;;;;;53.47;50.58;;;;;;;27.58;30.67;102156.25;5068712;28;20040;-71
2022/06/16 09:28:08;;;;;;;56.40;53.42;;;;;;;27.64;29.75;102159.69;5018357;28;20037;-71
2022/06/16 09:30:39;;;;;;;54.75;52.15;;;;;;;27.68;30.84;102165.41;5047876;28;20056;-72
2022/06/16 09:33:19;;;;;;;53.78;51.08;;;;;;;27.76;31.87;102168.19;5068243;28;20465;-71
2022/06/16 09:35:51;;;;;;;54.85;52.05;;;;;;;27.83;32.00;102165.78;5067967;28;20032;-71
2022/06/16 09:38:26;;;;;;;60.50;57.50;;;;;;;27.92;32.28;102162.19;5063440;28;20529;-71
2022/06/16 09:40:58;;;;;;;56.17;53.17;;;;;;;28.02;31.04;102172.97;5063503;28;20389;-72
2022/06/16 09:43:29;;;;;;;59.10;56.20;;;;;;;28.11;32.20;102165.44;5053939;28;20036;-72
2022/06/16 09:46:08;;;;;;;56.90;53.47;;;;;;;28.20;32.42;102177.38;5067186;28;20043;-71
2022/06/16 09:49:08;;;;;;;57.17;54.38;;;;;;;28.31;30.58;102177.03;5048029;28;20028;-71
2022/06/16 09:51:44;;;;;;;59.35;56.30;;;;;;;28.37;31.33;102168.19;5047976;28;20037;-71
2022/06/16 09:54:22;;;;;;;60.00;56.70;;;;;;;28.45;30.75;102164.63;5068024;28;20028;-71
2022/06/16 09:56:58;;;;;;;58.45;55.65;;;;;;;28.54;31.70;102164.59;5049687;28;20480;-71
2022/06/16 09:59:33;;;;;;;58.90;55.75;;;;;;;28.64;30.76;102171.75;5050996;28;20073;-70
2022/06/16 10:02:04;;;;;;;60.92;57.90;;;;;;;28.73;30.16;102178.13;5058970;28;20067;-78
2022/06/16 10:04:29;;;;;;;59.85;57.05;;;;;;;28.81;30.94;102170.91;5059128;28;20043;-69
2022/06/16 10:06:58;;;;;;;63.13;60.05;;;;;;;28.89;31.14;102181.97;5059355;28;20037;-69
2022/06/16 10:09:41;;;;;;;;;;;;;;;28.96;31.93;102177.88;5054279;28;20074;-71
2022/06/16 10:12:25;;;;;;;60.63;57.63;;;;;;;29.07;29.01;102182.75;5059613;28;19913;-69
2022/06/16 10:15:04;;;;;;;58.50;55.60;;;;;;;29.14;30.19;102178.63;5066544;28;20052;-70
2022/06/16 10:17:31;;;;;;;64.57;60.58;;;;;;;29.21;29.66;102182.53;5060122;28;20028;-69
2022/06/16 10:19:58;;;;;;;62.22;59.20;;;;;;;29.27;30.19;102181.16;5065409;28;20045;-70
2022/06/16 10:22:25;;;;;;;62.17;59.28;;;;;;;29.34;30.93;102177.88;5067000;28;20384;-70
2022/06/16 10:25:07;;;;;;;62.13;59.13;;;;;;;29.44;31.13;102185.03;5067425;28;20046;-69
2022/06/16 10:27:51;;;;;;;66.07;62.88;;;;;;;29.51;31.30;102191.69;5053182;28;20041;-70
2022/06/16 10:30:25;;;;;;;67.75;64.40;;;;;;;29.60;30.85;102196.38;5061194;28;20373;-69
2022/06/16 10:33:08;;;;;;;64.80;61.70;;;;;;;29.71;31.14;102189.28;5059474;28;20040;-69
2022/06/16 10:35:35;;;;;;;63.53;60.38;;;;;;;29.77;30.81;102188.75;5065255;28;20456;-69
2022/06/16 10:38:02;;;;;;;68.57;65.38;;;;;;;29.86;31.36;102180.34;5049044;28;20037;-69
2022/06/16 10:40:31;;;;;;;69.25;65.95;;;;;;;29.94;31.36;102181.41;5064231;28;20047;-71
2022/06/16 10:43:05;;;;;;;67.25;63.95;;;;;;;30.03;31.00;102178.53;5051728;28;20400;-69
2022/06/16 10:45:34;;;;;;;64.53;61.42;;;;;;;30.10;31.15;102174.06;5057789;28;20037;-69
2022/06/16 10:48:05;;;;;;;65.60;62.17;;;;;;;30.17;31.00;102179.88;5062030;28;20032;-69
2022/06/16 10:50:37;;;;;;;66.00;62.85;;;;;;;30.27;30.90;102183.44;5050699;28;20047;-70
2022/06/16 10:53:14;;;;;;;68.20;64.55;;;;;;;30.33;31.24;102185.66;5068071;28;20029;-69
2022/06/16 10:55:46;;;;;;;69.88;66.60;;;;;;;30.41;30.54;102181.16;5061812;28;20112;-70
2022/06/16 10:58:24;;;;;;;68.32;64.97;;;;;;;30.50;29.82;102173.53;5052877;28;20059;-69
2022/06/16 11:01:15;;;;;;;66.88;63.78;;;;;;;30.57;30.57;102179.34;5057792;28;20028;-70
2022/06/16 11:03:46;;;;;;;68.28;65.07;;;;;;;30.63;30.82;102175.16;5067483;28;20025;-70
2022/06/16 11:06:14;;;;;;;67.93;64.78;;;;;;;30.71;31.11;102170.66;5061112;28;20035;-70
2022/06/16 11:08:44;;;;;;;68.82;65.63;;;;;;;30.79;30.28;102171.72;5051395;28;20059;-69
2022/06/16 11:11:11;;;;;;;73.03;69.50;;;;;;;30.86;30.00;102169.19;5051546;28;20029;-71
2022/06/16 11:13:44;;;;;;;72.63;68.80;;;;;;;30.93;29.79;102174.22;5061036;28;20082;-70
2022/06/16 11:16:20;;;;;;;71.32;67.95;;;;;;;31.01;30.40;102165.72;5067023;28;20040;-69
2022/06/16 11:18:46;;;;;;;69.70;66.20;;;;;;;31.08;30.00;102162.34;5067482;28;20040;-70
2022/06/16 11:21:19;;;;;;;70.72;67.53;;;;;;;31.14;30.15;102160.94;5053211;28;20037;-69
2022/06/16 11:23:50;;;;;;;71.40;67.85;;;;;;;31.22;30.03;102164.78;5055862;28;20492;-69
2022/06/16 11:26:16;;;;;;;71.55;67.97;;;;;;;31.28;29.85;102157.81;5066296;28;20090;-69
2022/06/16 11:28:54;;;;;;;73.50;69.70;;;;;;;31.36;27.39;102159.66;5066830;28;20524;-69
2022/06/16 11:31:23;;;;;;;73.32;69.93;;;;;;;31.42;27.51;102160.25;5065617;28;20127;-70
2022/06/16 11:34:08;;;;;;;72.47;69.18;;;;;;;31.48;28.61;102158.84;5067365;28;20086;-70
2022/06/16 11:36:52;;;;;;;73.75;70.32;;;;;;;31.55;29.72;102161.03;5068458;28;20427;-70
2022/06/16 11:39:27;;;;;;;73.38;69.88;;;;;;;31.59;29.28;102153.59;5060342;28;20025;-69
2022/06/16 11:41:54;;;;;;;77.35;73.70;;;;;;;31.66;29.18;102154.63;5052285;28;20060;-67
2022/06/16 11:44:24;;;;;;;73.00;69.63;;;;;;;31.72;29.45;102163.56;5050716;28;20033;-69